Caapiranga, Brazil
Current Conditions -  °F | °C
As of 12:00 PM on Sunday 21 Dec 2014 (Local Time) from SBEG Reporting Station
Broken Clouds Broken Clouds  
Wind Chill: 86°   Ceiling: 3000
Heat Index: 92°   Visibility: 6mi
Dew Point: 72°   Wind: 9mph
Humidity: 62%   Direction: 10°N
Pressure: 29.85"   Gusts: NA
Location:  3.3°S, 61.21°W
Report Text: SBEG 211600Z 01008KT 9999 FEW025TCU BKN030 BKN080 30/22 Q1011
Loading
Personal Weather Stations






























Interactive Weather Map New forecast layout! Learn more

10-Day Weather Forecast

Advertisements
Track Severe Weather on mobile